Time;durP1;ratioP1;P1;durP2;ratioP2;P2;SDS_P1;SDS_P2;PMS_P1;PMS_P2;Temp;Humidity;BMP_temperature;BMP_pressure;BME280_temperature;BME280_humidity;BME280_pressure;Samples;Min_cycle;Max_cycle;Signal;HPM_P1;HPM_P2
2021/01/03 00:02:31;;;;;;;98.55;32.35;;;;;;;0.26;100.00;100773.98;10574331;83;21134;-88
2021/01/03 00:17:35;;;;;;;86.28;30.17;;;;;;;0.12;100.00;100769.78;10515966;84;21126;-90
2021/01/03 00:32:40;;;;;;;79.12;26.90;;;;;;;0.17;100.00;100753.68;10458212;84;417137;-90
2021/01/03 00:47:45;;;;;;;77.03;27.45;;;;;;;0.08;100.00;100739.41;10511851;84;21148;-91
2021/01/03 01:02:49;;;;;;;69.17;25.60;;;;;;;0.07;100.00;100739.47;10523653;83;353492;-91
2021/01/03 01:17:57;;;;;;;78.40;26.17;;;;;;;-0.15;100.00;100756.17;10542860;84;21199;-91
2021/01/03 01:33:35;;;;;;;72.90;25.52;;;;;;;-0.14;100.00;100762.55;10572072;83;21258;-94
2021/01/03 01:49:12;;;;;;;62.13;23.57;;;;;;;-0.11;100.00;100761.61;10590406;83;21551;-92
2021/01/03 02:04:23;;;;;;;54.05;20.65;;;;;;;-0.14;100.00;100767.72;10570012;82;94297;-93
2021/01/03 02:19:33;;;;;;;79.35;25.37;;;;;;;-0.20;100.00;100765.34;10703905;81;21082;-93
2021/01/03 02:34:42;;;;;;;68.40;22.50;;;;;;;-0.07;100.00;100761.88;10535372;84;21548;-90
2021/01/03 02:49:46;;;;;;;74.27;23.15;;;;;;;-0.03;100.00;100755.71;10512770;84;21183;-90
2021/01/03 03:04:50;;;;;;;60.45;21.15;;;;;;;-0.11;100.00;100780.95;10383552;83;5138191;-92
2021/01/03 03:19:55;;;;;;;56.53;18.75;;;;;;;0.01;100.00;100742.27;10539632;83;21147;-90
2021/01/03 03:34:59;;;;;;;51.00;19.98;;;;;;;-0.12;100.00;100688.55;10626486;82;820877;-92
2021/01/03 03:50:07;;;;;;;48.83;17.48;;;;;;;-0.19;100.00;100729.17;10848863;82;21132;-91
2021/01/03 04:05:16;;;;;;;54.45;20.50;;;;;;;-0.07;100.00;100708.55;10849377;81;21578;-92
2021/01/03 04:20:20;;;;;;;62.15;21.00;;;;;;;-0.07;100.00;100730.47;10601529;82;21097;-93
2021/01/03 04:35:26;;;;;;;;;;;;;;;-0.07;100.00;100746.41;10316232;86;21133;-90
2021/01/03 04:50:56;;;;;;;53.83;21.15;;;;;;;0.03;100.00;100735.29;10315099;86;20568;-90
2021/01/03 05:06:06;;;;;;;63.25;22.30;;;;;;;0.13;100.00;100736.63;10314363;86;21200;-89
2021/01/03 05:21:10;;;;;;;75.22;27.17;;;;;;;0.06;100.00;100736.03;10259849;86;21518;-89
2021/01/03 05:36:30;;;;;;;79.82;31.07;;;;;;;0.04;100.00;100718.48;10134562;87;21156;-90
2021/01/03 06:08:27;;;;;;;84.40;33.73;;;;;;;0.07;100.00;100720.95;9020546;94;470170;-92
2021/01/03 06:23:36;;;;;;;73.45;26.77;;;;;;;0.12;100.00;100722.05;9322985;93;21209;-90
2021/01/03 06:39:06;;;;;;;92.20;33.02;;;;;;;0.13;100.00;100731.47;9650383;85;123196;-91
2021/01/03 06:55:03;;;;;;;86.28;28.77;;;;;;;0.04;100.00;100743.42;9666895;91;21195;-88
2021/01/03 07:10:12;;;;;;;97.30;38.50;;;;;;;0.21;100.00;100749.25;9826958;89;21211;-87
2021/01/03 07:25:25;;;;;;;96.12;32.98;;;;;;;0.11;100.00;100739.28;9323195;94;21258;-88
2021/01/03 07:40:34;;;;;;;122.95;43.13;;;;;;;0.17;100.00;100725.30;9805816;84;3538463;-89
2021/01/03 07:55:41;;;;;;;172.65;64.87;;;;;;;0.14;100.00;100733.16;10346839;83;21250;-85
2021/01/03 08:11:16;;;;;;;147.65;54.90;;;;;;;0.23;100.00;100737.15;10393472;84;21119;-86
2021/01/03 08:26:28;;;;;;;120.62;47.62;;;;;;;0.39;100.00;100751.59;9999909;88;21163;-85
2021/01/03 08:41:37;;;;;;;145.92;60.67;;;;;;;0.55;100.00;100781.55;9964142;86;21138;-87
2021/01/03 08:56:47;;;;;;;211.03;86.12;;;;;;;0.65;100.00;100754.47;10027116;86;246181;-87
2021/01/03 09:12:12;;;;;;;311.68;117.70;;;;;;;0.65;100.00;100754.47;9950124;86;152846;-87
2021/01/03 09:27:23;;;;;;;258.93;95.92;;;;;;;0.77;100.00;100747.52;9790123;86;21377;-86
2021/01/03 09:42:57;;;;;;;309.30;110.83;;;;;;;0.71;100.00;100755.96;9925889;87;21128;-87
2021/01/03 09:58:09;;;;;;;279.95;100.87;;;;;;;0.90;100.00;100741.84;9404957;91;155109;-87
2021/01/03 10:13:17;;;;;;;203.30;72.45;;;;;;;1.06;100.00;100731.75;9966449;86;154138;-84
2021/01/03 10:28:29;;;;;;;229.90;89.62;;;;;;;1.14;100.00;100707.25;9959557;87;21267;-85
2021/01/03 10:43:35;;;;;;;214.38;79.00;;;;;;;1.25;100.00;100682.70;9720012;90;21157;-87
2021/01/03 10:58:45;;;;;;;;;;;;;;;1.25;100.00;100682.70;9787314;90;21726;-88
2021/01/03 11:14:03;;;;;;;237.97;86.08;;;;;;;1.22;100.00;100685.43;9074681;96;20294;-87
2021/01/03 11:29:15;;;;;;;174.25;66.67;;;;;;;1.18;100.00;100676.12;9200394;90;100825;-87
2021/01/03 11:44:22;;;;;;;244.82;78.85;;;;;;;1.26;100.00;100653.38;9444581;92;21206;-88
2021/01/03 11:59:28;;;;;;;217.07;72.15;;;;;;;1.29;100.00;100659.69;9483868;89;21670;-87
2021/01/03 12:30:58;;;;;;;531.92;193.78;;;;;;;1.14;100.00;100620.67;9905424;88;21327;-87
2021/01/03 12:46:02;;;;;;;437.27;150.60;;;;;;;1.27;100.00;100630.50;10132517;86;21239;-87
2021/01/03 13:01:07;;;;;;;309.83;121.17;;;;;;;1.27;100.00;100630.50;10128763;86;21168;-89
2021/01/03 13:16:17;;;;;;;176.20;71.80;;;;;;;1.33;100.00;100607.80;10218044;83;398190;-88
2021/01/03 13:31:25;;;;;;;117.17;41.73;;;;;;;1.30;100.00;100625.19;10336135;85;21189;-88
2021/01/03 13:46:31;;;;;;;199.40;74.58;;;;;;;1.30;100.00;100625.19;10359444;83;283733;-88
2021/01/03 14:01:37;;;;;;;168.90;56.70;;;;;;;1.20;100.00;100617.44;10064116;85;21142;-89
2021/01/03 14:16:43;;;;;;;143.75;48.90;;;;;;;1.35;100.00;100637.89;9675709;88;21710;-88
2021/01/03 14:31:54;;;;;;;224.42;79.72;;;;;;;1.49;100.00;100644.16;10362846;81;21194;-88
2021/01/03 14:47:10;;;;;;;107.03;39.33;;;;;;;1.48;100.00;100637.77;10588531;81;21484;-87
2021/01/03 15:03:14;;;;;;;173.68;63.55;;;;;;;1.32;100.00;100642.77;10582617;81;21103;-87
2021/01/03 15:18:29;;;;;;;102.83;38.07;;;;;;;1.32;100.00;100642.77;10156374;86;21153;-86
2021/01/03 15:33:40;;;;;;;85.60;34.65;;;;;;;1.41;100.00;100628.14;10174154;86;21113;-87
2021/01/03 15:48:50;;;;;;;127.15;48.35;;;;;;;1.25;100.00;100624.55;10234835;84;21680;-88
2021/01/03 16:04:48;;;;;;;112.50;39.30;;;;;;;1.25;100.00;100624.55;10340805;84;21542;-87
2021/01/03 16:37:10;;;;;;;88.50;31.70;;;;;;;1.01;100.00;100632.45;9665141;89;305064;-87
2021/01/03 18:18:25;;;;;;;82.55;28.55;;;;;;;1.25;100.00;100632.30;8841700;99;21118;-85
2021/01/03 18:51:07;;;;;;;60.17;25.35;;;;;;;1.36;100.00;100624.06;8893677;97;21221;-88
2021/01/03 19:06:22;;;;;;;61.63;24.05;;;;;;;1.14;100.00;100618.09;9044861;94;2873557;-93
2021/01/03 19:21:52;;;;;;;78.83;29.67;;;;;;;1.19;100.00;100632.55;9485546;92;21140;-96
2021/01/03 19:37:30;;;;;;;98.50;37.13;;;;;;;1.31;100.00;100633.33;9670548;89;2620510;-95
2021/01/03 19:52:34;;;;;;;87.65;32.90;;;;;;;1.21;100.00;100599.73;9847289;89;21170;-92
2021/01/03 20:07:40;;;;;;;144.30;51.10;;;;;;;1.12;100.00;100610.88;9834595;89;21507;-91
2021/01/03 20:22:47;;;;;;;113.15;35.92;;;;;;;1.33;100.00;100622.45;9484441;89;21187;-91
2021/01/03 20:37:53;;;;;;;60.55;23.30;;;;;;;1.43;100.00;100657.34;9527105;88;213981;-91
2021/01/03 20:53:01;;;;;;;66.35;27.52;;;;;;;1.48;100.00;100661.03;9706949;90;21600;-91
2021/01/03 21:08:14;;;;;;;52.03;23.47;;;;;;;1.48;100.00;100661.03;9794800;88;173868;-93
2021/01/03 21:23:43;;;;;;;57.27;22.10;;;;;;;1.36;100.00;100654.66;9661480;89;5567237;-91
2021/01/03 21:38:50;;;;;;;42.20;18.47;;;;;;;1.46;100.00;100661.08;9570402;91;21252;-89
2021/01/03 21:54:05;;;;;;;42.60;18.60;;;;;;;1.56;100.00;100656.36;9695246;90;21089;-91
2021/01/03 22:09:56;;;;;;;59.00;22.02;;;;;;;1.67;100.00;100662.33;9523581;92;21259;-95
2021/01/03 22:25:27;;;;;;;32.28;15.05;;;;;;;1.63;100.00;100659.50;9531440;92;21185;-93
2021/01/03 22:41:03;;;;;;;32.88;12.95;;;;;;;1.65;100.00;100663.70;9556387;90;21189;-94
2021/01/03 22:57:05;;;;;;;35.77;14.93;;;;;;;1.62;100.00;100647.04;9530026;91;21368;-92
2021/01/03 23:12:28;;;;;;;41.30;18.35;;;;;;;1.57;100.00;100649.42;9444186;93;21092;-92
2021/01/03 23:27:39;;;;;;;30.92;11.97;;;;;;;1.56;100.00;100636.10;9530239;91;2316352;-91
2021/01/03 23:42:49;;;;;;;29.42;13.55;;;;;;;1.51;100.00;100615.63;9539497;90;21153;-92
2021/01/03 23:58:09;;;;;;;43.33;18.17;;;;;;;1.51;100.00;100615.63;9374398;92;21250;-92
